Time;durP1;ratioP1;P1;durP2;ratioP2;P2;SDS_P1;SDS_P2;PMS_P1;PMS_P2;Temp;Humidity;BMP_temperature;BMP_pressure;BME280_temperature;BME280_humidity;BME280_pressure;Samples;Min_cycle;Max_cycle;Signal;HPM_P1;HPM_P2
2020/12/09 00:02:20;;;;;;;;;;;;;;;3.22;84.52;99385.25;5055837;28;20039;-73
2020/12/09 00:04:46;;;;;;;;;;;;;;;3.18;85.18;99385.81;5055994;28;19977;-73
2020/12/09 00:07:14;;;;;;;;;;;;;;;3.14;86.19;99395.28;5072250;28;19929;-75
2020/12/09 00:09:40;;;;;;;;;;;;;;;3.12;86.04;99384.69;5073759;28;20344;-72
2020/12/09 00:12:06;;;;;;;;;;;;;;;3.18;86.69;99389.31;5055894;28;19925;-73
2020/12/09 00:14:32;;;;;;;;;;;;;;;3.15;86.87;99384.31;5035925;28;19924;-72
2020/12/09 00:16:59;;;;;;;;;;;;;;;2.98;86.90;99378.34;5066706;28;19931;-72
2020/12/09 00:19:25;;;;;;;;;;;;;;;2.97;88.27;99387.44;5038006;28;19935;-73
2020/12/09 00:21:51;;;;;;;;;;;;;;;2.88;89.19;99377.78;5069207;28;20448;-74
2020/12/09 00:24:18;;;;;;;;;;;;;;;2.94;90.28;99382.41;5075166;28;20151;-72
2020/12/09 00:26:44;;;;;;;;;;;;;;;2.93;89.98;99382.59;5055364;28;19928;-73
2020/12/09 00:29:10;;;;;;;;;;;;;;;2.91;89.48;99381.97;5022072;28;20406;-72
2020/12/09 00:31:37;;;;;;;;;;;;;;;3.01;90.13;99382.50;5019353;28;19925;-72
2020/12/09 00:34:03;;;;;;;;;;;;;;;3.02;89.97;99373.41;5050666;28;19925;-73
2020/12/09 00:36:29;;;;;;;;;;;;;;;3.00;90.15;99386.22;5036283;28;20383;-75
2020/12/09 00:38:56;;;;;;;;;;;;;;;2.95;90.09;99394.03;5047693;28;19929;-75
2020/12/09 00:41:26;;;;;;;;;;;;;;;2.97;90.57;99392.81;5038330;28;20337;-73
2020/12/09 00:43:55;;;;;;;;;;;;;;;2.97;91.49;99397.34;5038913;28;19931;-73
2020/12/09 00:46:22;;;;;;;;;;;;;;;2.93;92.09;99390.69;5036043;28;19960;-73
2020/12/09 00:48:53;;;;;;;;;;;;;;;2.85;92.02;99388.09;5029326;28;19925;-73
2020/12/09 00:51:23;;;;;;;;;;;;;;;2.81;92.08;99390.31;5036303;28;19924;-75
2020/12/09 00:53:49;;;;;;;;;;;;;;;2.86;92.95;99389.75;5019755;28;19933;-75
2020/12/09 00:56:21;;;;;;;;;;;;;;;2.95;92.79;99400.22;5052223;28;20012;-75
2020/12/09 00:58:48;;;;;;;;;;;;;;;2.93;92.62;99385.28;5045927;28;19964;-75
2020/12/09 01:01:15;;;;;;;;;;;;;;;2.87;92.17;99388.72;5055392;28;19936;-75
2020/12/09 01:03:48;;;;;;;;;;;;;;;2.83;92.59;99387.44;5035816;28;19964;-76
2020/12/09 01:06:15;;;;;;;;;;;;;;;2.85;92.25;99388.09;5051678;28;20436;-75
2020/12/09 01:08:41;;;;;;;;;;;;;;;2.84;92.40;99389.09;5034206;28;19939;-74
2020/12/09 01:11:07;;;;;;;;;;;;;;;2.78;92.16;99389.84;5030400;28;19925;-74
2020/12/09 01:13:34;;;;;;;;;;;;;;;2.82;92.35;99388.44;5023850;28;19925;-76
2020/12/09 01:16:00;;;;;;;;;;;;;;;2.79;92.67;99386.13;5040256;28;19932;-74
2020/12/09 01:18:26;;;;;;;;;;;;;;;2.81;92.85;99386.78;5072197;28;19931;-77
2020/12/09 01:20:52;;;;;;;;;;;;;;;2.84;93.01;99386.41;5035474;28;19924;-76
2020/12/09 01:23:19;;;;;;;;;;;;;;;2.86;92.58;99389.75;5067907;28;19928;-77
2020/12/09 01:25:45;;;;;;;;;;;;;;;2.85;92.98;99391.59;5071088;28;19924;-75
2020/12/09 01:28:15;;;;;;;;;;;;;;;2.87;92.66;99394.13;5054856;28;20007;-76
2020/12/09 01:30:41;;;;;;;;;;;;;;;2.87;92.98;99380.66;5054942;28;20015;-76
2020/12/09 01:33:08;;;;;;;;;;;;;;;2.93;93.22;99390.69;5018784;28;19924;-76
2020/12/09 01:35:34;;;;;;;;;;;;;;;2.97;92.98;99381.22;5070191;28;19929;-74
2020/12/09 01:38:01;;;;;;;;;;;;;;;3.01;93.06;99377.97;5054383;28;19928;-75
2020/12/09 01:40:27;;;;;;;;;;;;;;;2.93;92.98;99375.38;5051199;28;19982;-73
2020/12/09 01:42:53;;;;;;;;;;;;;;;2.88;93.05;99377.78;5037751;28;19929;-74
2020/12/09 01:45:20;;;;;;;;;;;;;;;2.96;93.19;99388.44;5034914;28;20371;-75
2020/12/09 01:47:46;;;;;;;;;;;;;;;2.96;92.90;99388.44;5068278;28;19924;-75
2020/12/09 01:50:13;;;;;;;;;;;;;;;2.94;92.68;99381.59;5053152;28;20346;-75
2020/12/09 01:52:40;;;;;;;;;;;;;;;2.93;93.05;99375.38;5054278;28;19924;-75
2020/12/09 01:55:06;;;;;;;;;;;;;;;2.93;93.29;99385.28;5070762;28;19925;-77
2020/12/09 01:57:33;;;;;;;;;;;;;;;2.95;93.43;99372.50;5053503;28;19924;-75
2020/12/09 01:59:59;;;;;;;;;;;;;;;2.97;93.50;99378.53;5054293;28;20003;-75
2020/12/09 02:02:25;;;;;;;;;;;;;;;2.99;93.28;99376.47;5026844;28;20430;-76
2020/12/09 02:04:51;;;;;;;;;;;;;;;3.01;93.22;99371.75;5049842;28;20357;-74
2020/12/09 02:07:19;;;;;;;;;;;;;;;3.04;93.21;99366.00;5050051;28;19931;-74
2020/12/09 02:09:55;;;;;;;;;;;;;;;3.04;93.12;99360.59;5017761;28;19931;-74
2020/12/09 02:12:21;;;;;;;;;;;;;;;3.12;93.11;99370.44;5047538;28;19952;-75
2020/12/09 02:14:47;;;;;;;;;;;;;;;3.22;92.59;99373.63;5070329;28;19931;-75
2020/12/09 02:17:14;;;;;;;;;;;;;;;3.14;92.63;99374.56;5070697;28;19929;-73
2020/12/09 02:19:40;;;;;;;;;;;;;;;3.20;92.64;99381.91;5053487;28;19994;-75
2020/12/09 02:22:10;;;;;;;;;;;;;;;3.18;92.64;99378.56;5050676;28;19955;-74
2020/12/09 02:24:36;;;;;;;;;;;;;;;3.20;92.84;99381.06;5051755;28;19925;-74
2020/12/09 02:27:02;;;;;;;;;;;;;;;3.23;93.13;99380.69;5017598;28;20306;-74
2020/12/09 02:29:29;;;;;;;;;;;;;;;3.28;93.04;99384.50;5052317;28;19925;-74
2020/12/09 02:31:55;;;;;;;;;;;;;;;3.36;92.20;99381.69;5070540;28;19928;-74
2020/12/09 02:34:21;;;;;;;;;;;;;;;3.40;92.05;99397.47;5070347;28;19925;-75
2020/12/09 02:36:47;;;;;;;;;;;;;;;3.41;92.05;99388.38;5053779;28;19950;-74
2020/12/09 02:39:14;;;;;;;;;;;;;;;3.39;92.06;99387.72;5034077;28;20337;-75
2020/12/09 02:41:40;;;;;;;;;;;;;;;3.48;91.23;99384.69;5061727;28;19974;-75
2020/12/09 02:44:06;;;;;;;;;;;;;;;3.51;91.51;99378.09;5056874;28;20381;-74
2020/12/09 02:46:33;;;;;;;;;;;;;;;3.58;91.25;99384.38;5050378;28;20456;-75
2020/12/09 02:48:59;;;;;;;;;;;;;;;3.60;90.94;99393.94;5036827;28;19925;-75
2020/12/09 02:51:25;;;;;;;;;;;;;;;3.71;91.37;99392.63;5039900;28;19932;-75
2020/12/09 02:53:51;;;;;;;;;;;;;;;3.69;90.93;99386.59;5064984;28;20030;-75
2020/12/09 02:56:18;;;;;;;;;;;;;;;3.66;90.66;99387.78;5057996;28;19970;-75
2020/12/09 02:58:44;;;;;;;;;;;;;;;3.87;90.10;99381.56;5061373;28;19928;-74
2020/12/09 03:01:10;;;;;;;;;;;;;;;3.86;90.20;99382.59;5070675;28;19925;-74
2020/12/09 03:03:36;;;;;;;;;;;;;;;3.79;90.52;99384.41;5056882;28;20011;-74
2020/12/09 03:06:03;;;;;;;;;;;;;;;3.83;89.92;99388.34;5074918;28;19970;-74
2020/12/09 03:08:29;;;;;;;;;;;;;;;3.78;90.20;99396.22;5056605;28;20362;-76
2020/12/09 03:10:55;;;;;;;;;;;;;;;3.94;89.73;99395.94;5039424;28;19934;-74
2020/12/09 03:13:21;;;;;;;;;;;;;;;4.05;89.66;99397.28;5056160;28;20452;-74
2020/12/09 03:15:47;;;;;;;;;;;;;;;3.97;88.91;99390.16;5061405;28;19960;-74
2020/12/09 03:18:14;;;;;;;;;;;;;;;4.00;89.58;99373.59;5075325;28;19952;-74
2020/12/09 03:20:44;;;;;;;;;;;;;;;3.98;89.64;99381.03;5043400;28;19924;-75
2020/12/09 03:23:11;;;;;;;;;;;;;;;3.91;89.73;99382.00;5060179;28;20444;-75
2020/12/09 03:25:40;;;;;;;;;;;;;;;4.00;88.96;99384.38;5077316;23;19924;31
2020/12/09 03:28:06;;;;;;;;;;;;;;;4.04;89.65;99396.44;5025818;28;19992;-70
2020/12/09 03:30:33;;;;;;;;;;;;;;;4.09;89.62;99395.03;5008874;28;19925;-70
2020/12/09 03:32:59;;;;;;;;;;;;;;;3.86;90.12;99385.28;5036334;28;19979;-70
2020/12/09 03:35:26;;;;;;;;;;;;;;;4.00;89.67;99388.94;5003622;28;19926;-70
2020/12/09 03:37:52;;;;;;;;;;;;;;;4.12;89.45;99389.25;5019537;28;19964;-70
2020/12/09 03:40:18;;;;;;;;;;;;;;;4.07;88.69;99376.34;5021431;28;19925;-70
2020/12/09 03:42:44;;;;;;;;;;;;;;;4.09;88.69;99379.69;5021131;28;19925;-70
2020/12/09 03:45:11;;;;;;;;;;;;;;;4.11;88.53;99382.19;5020902;28;19933;-70
2020/12/09 03:47:37;;;;;;;;;;;;;;;4.09;88.84;99377.00;5020759;28;20028;-70
2020/12/09 03:50:04;;;;;;;;;;;;;;;3.94;89.24;99376.22;5021727;28;19934;-70
2020/12/09 03:52:30;;;;;;;;;;;;;;;3.96;89.27;99383.09;4984029;28;20388;-70
2020/12/09 03:54:56;;;;;;;;;;;;;;;3.93;88.97;99379.97;5014509;28;20269;-70
2020/12/09 03:57:23;;;;;;;;;;;;;;;4.00;88.88;99380.84;5019812;28;20016;-70
2020/12/09 03:59:49;;;;;;;;;;;;;;;3.98;88.79;99381.03;5021080;28;19926;-70
2020/12/09 04:02:15;;;;;;;;;;;;;;;3.91;88.82;99384.72;5019814;28;19933;-69
2020/12/09 04:04:41;;;;;;;;;;;;;;;3.88;89.34;99375.16;5019298;28;19929;-69
2020/12/09 04:07:08;;;;;;;;;;;;;;;3.82;89.22;99380.47;5019576;28;19932;-69
2020/12/09 04:09:34;;;;;;;;;;;;;;;3.97;88.67;99376.69;5000908;28;20371;-69
2020/12/09 04:12:00;;;;;;;;;;;;;;;3.93;88.92;99386.19;5020176;28;19949;-69
2020/12/09 04:14:26;;;;;;;;;;;;;;;3.91;88.94;99390.94;5016472;28;19988;-69
2020/12/09 04:16:52;;;;;;;;;;;;;;;3.94;88.66;99387.84;5015107;28;19961;-69
2020/12/09 04:19:19;;;;;;;;;;;;;;;4.00;89.25;99392.47;4996953;28;19992;-69
2020/12/09 04:21:45;;;;;;;;;;;;;;;3.95;88.76;99394.91;5021672;28;19929;-69
2020/12/09 04:24:11;;;;;;;;;;;;;;;3.84;89.24;99392.72;4995547;28;19976;-69
2020/12/09 04:26:37;;;;;;;;;;;;;;;3.80;89.55;99394.16;5027294;28;19925;-69
2020/12/09 04:29:04;;;;;;;;;;;;;;;3.81;89.06;99393.09;5014559;28;19929;-69
2020/12/09 04:31:30;;;;;;;;;;;;;;;3.80;89.83;99388.78;5015021;28;19949;-69
2020/12/09 04:33:56;;;;;;;;;;;;;;;3.81;89.92;99390.41;5001242;28;19972;-69
2020/12/09 04:36:23;;;;;;;;;;;;;;;3.89;89.68;99401.06;5023276;28;20019;-69
2020/12/09 04:38:49;;;;;;;;;;;;;;;3.96;89.21;99410.06;5022642;28;19954;-70
2020/12/09 04:41:16;;;;;;;;;;;;;;;3.94;89.00;99401.31;5023159;28;19936;-70
2020/12/09 04:43:42;;;;;;;;;;;;;;;3.92;88.94;99398.00;4995061;28;19936;-70
2020/12/09 04:46:08;;;;;;;;;;;;;;;3.84;89.42;99384.63;5012925;28;19933;-71
2020/12/09 04:48:37;;;;;;;;;;;;;;;3.89;89.51;99398.38;5028927;28;19926;-70
2020/12/09 04:51:22;;;;;;;;;;;;;;;3.93;89.63;99399.66;5029848;28;19953;-70
2020/12/09 04:53:51;;;;;;;;;;;;;;;4.01;89.64;99390.59;5028958;28;20001;-70
2020/12/09 04:56:17;;;;;;;;;;;;;;;3.91;88.95;99384.72;5025784;28;19932;-70
2020/12/09 04:58:44;;;;;;;;;;;;;;;3.99;89.11;99387.28;5014614;28;19952;-70
2020/12/09 05:01:11;;;;;;;;;;;;;;;3.87;89.51;99384.25;5014991;28;19930;-70
2020/12/09 05:03:42;;;;;;;;;;;;;;;3.93;89.26;99394.25;4999826;28;19929;-70
2020/12/09 05:06:09;;;;;;;;;;;;;;;3.91;89.41;99390.09;5015847;28;19925;-70
2020/12/09 05:08:35;;;;;;;;;;;;;;;4.02;89.25;99401.19;4999380;28;19925;-70
2020/12/09 05:11:05;;;;;;;;;;;;;;;4.08;89.19;99410.38;5016466;28;19925;-70
2020/12/09 05:13:33;;;;;;;;;;;;;;;4.13;88.76;99409.81;5016999;28;19963;-70
2020/12/09 05:16:00;;;;;;;;;;;;;;;4.14;88.13;99415.00;5000041;28;19933;-70
2020/12/09 05:18:36;;;;;;;;;;;;;;;4.09;87.83;99413.91;4998488;28;19972;-70
2020/12/09 05:21:09;;;;;;;;;;;;;;;4.18;88.34;99424.34;5015459;28;19930;-70
2020/12/09 05:23:37;;;;;;;;;;;;;;;4.15;88.41;99423.91;5012774;28;20392;-70
2020/12/09 05:26:05;;;;;;;;;;;;;;;4.27;87.95;99423.19;5012784;28;19925;-70
2020/12/09 05:28:31;;;;;;;;;;;;;;;4.16;87.93;99423.69;5014919;28;19926;-70
2020/12/09 05:30:57;;;;;;;;;;;;;;;4.15;88.31;99426.63;5013806;28;19933;-70
2020/12/09 05:33:29;;;;;;;;;;;;;;;4.08;88.33;99433.81;5013960;28;19965;-70
2020/12/09 05:35:56;;;;;;;;;;;;;;;4.07;88.95;99429.44;5013142;28;20382;-69
2020/12/09 05:38:22;;;;;;;;;;;;;;;3.94;89.12;99435.53;4993029;28;19984;-70
2020/12/09 05:40:49;;;;;;;;;;;;;;;3.89;89.55;99429.88;5014149;28;19964;-71
2020/12/09 05:43:17;;;;;;;;;;;;;;;3.93;89.10;99441.94;5014381;28;19954;-70
2020/12/09 05:45:43;;;;;;;;;;;;;;;4.03;88.89;99446.00;5004368;28;19925;-70
2020/12/09 05:48:10;;;;;;;;;;;;;;;4.14;88.14;99443.81;5011285;28;20396;-70
2020/12/09 05:50:43;;;;;;;;;;;;;;;4.16;88.66;99437.19;4994050;28;19937;-70
2020/12/09 05:53:15;;;;;;;;;;;;;;;4.15;88.31;99437.41;5009260;28;20170;-70
2020/12/09 05:55:42;;;;;;;;;;;;;;;4.04;88.46;99446.84;5009777;28;19929;-70
2020/12/09 05:58:19;;;;;;;;;;;;;;;4.06;88.25;99446.66;5009636;28;19933;-70
2020/12/09 06:01:02;;;;;;;;;;;;;;;4.12;88.28;99453.97;5008499;28;19980;-70
2020/12/09 06:03:29;;;;;;;;;;;;;;;4.04;88.13;99450.38;5010105;28;20331;-70
2020/12/09 06:06:06;;;;;;;;;;;;;;;3.99;89.24;99457.34;5009206;28;19942;-70
2020/12/09 06:08:36;;;;;;;;;;;;;;;3.99;88.95;99463.59;4991400;28;19926;-70
2020/12/09 06:11:02;;;;;;;;;;;;;;;4.06;88.63;99457.44;5009234;28;19976;-70
2020/12/09 06:13:31;;;;;;;;;;;;;;;3.91;88.57;99455.63;5010724;28;20296;-70
2020/12/09 06:15:58;;;;;;;;;;;;;;;3.96;89.01;99461.25;5008608;28;19933;-70
2020/12/09 06:18:24;;;;;;;;;;;;;;;3.87;88.87;99459.72;5008086;28;19948;-70
2020/12/09 06:20:51;;;;;;;;;;;;;;;3.94;88.59;99463.31;5008579;28;19930;-70
2020/12/09 06:23:18;;;;;;;;;;;;;;;4.04;88.72;99468.41;4992608;28;19926;-70
2020/12/09 06:25:45;;;;;;;;;;;;;;;3.99;88.21;99474.38;4996266;28;19925;-70
2020/12/09 06:28:19;;;;;;;;;;;;;;;3.88;89.41;99472.16;5011318;28;20392;-70
2020/12/09 06:30:46;;;;;;;;;;;;;;;3.97;88.65;99481.81;5003738;28;20028;-70
2020/12/09 06:33:12;;;;;;;;;;;;;;;4.00;88.74;99491.38;4992777;28;19930;-70
2020/12/09 06:35:39;;;;;;;;;;;;;;;3.98;89.04;99485.34;5008727;28;20006;-70
2020/12/09 06:38:08;;;;;;;;;;;;;;;4.03;88.39;99488.28;5013600;28;19965;-70
2020/12/09 06:40:53;;;;;;;;;;;;;;;4.01;88.99;99493.03;4991882;28;19973;-70
2020/12/09 06:43:20;;;;;;;;;;;;;;;4.03;89.28;99499.91;4994300;28;20389;-70
2020/12/09 06:45:48;;;;;;;;;;;;;;;4.17;88.93;99497.34;5010982;28;20379;-70
2020/12/09 06:48:15;;;;;;;;;;;;;;;4.03;88.80;99502.59;5008435;28;19930;-70
2020/12/09 06:50:44;;;;;;;;;;;;;;;4.14;88.32;99500.44;5007812;28;19957;-69
2020/12/09 06:53:18;;;;;;;;;;;;;;;4.09;88.41;99495.63;5008709;28;20023;-70
2020/12/09 06:55:44;;;;;;;;;;;;;;;4.10;88.42;99501.84;4992209;28;19930;-70
2020/12/09 06:58:20;;;;;;;;;;;;;;;4.11;88.57;99498.13;4994180;28;19926;-70
2020/12/09 07:01:03;;;;;;;;;;;;;;;4.13;89.35;99498.78;5008203;28;19926;-70
2020/12/09 07:03:30;;;;;;;;;;;;;;;4.17;88.68;99508.13;4996127;28;19926;-70
2020/12/09 07:05:56;;;;;;;;;;;;;;;4.13;88.90;99512.25;5008367;28;19941;-70
2020/12/09 07:08:23;;;;;;;;;;;;;;;4.17;89.19;99518.91;5007891;28;19926;-70
2020/12/09 07:10:50;;;;;;;;;;;;;;;4.19;89.03;99527.63;5008275;28;20509;-70
2020/12/09 07:13:19;;;;;;;;;;;;;;;4.22;88.71;99528.09;5009056;28;20040;-70
2020/12/09 07:15:49;;;;;;;;;;;;;;;4.19;88.84;99524.94;5007546;28;20412;-70
2020/12/09 07:18:15;;;;;;;;;;;;;;;4.22;89.32;99532.66;4991474;28;19961;-70
2020/12/09 07:20:42;;;;;;;;;;;;;;;4.20;88.99;99540.09;4996520;28;20025;-70
2020/12/09 07:23:08;;;;;;;;;;;;;;;4.22;88.91;99538.88;4994428;28;20400;-70
2020/12/09 07:25:34;;;;;;;;;;;;;;;4.23;88.14;99539.72;5007428;28;19929;-71
2020/12/09 07:28:01;;;;;;;;;;;;;;;4.19;88.46;99538.41;5006840;28;19960;-70
2020/12/09 07:30:28;;;;;;;;;;;;;;;4.20;88.46;99540.09;5007790;28;19925;-70
2020/12/09 07:32:55;;;;;;;;;;;;;;;4.22;88.05;99532.66;5008374;28;19992;-70
2020/12/09 07:35:21;;;;;;;;;;;;;;;4.21;87.77;99541.75;5007497;28;20020;-70
2020/12/09 07:37:52;;;;;;;;;;;;;;;4.25;88.38;99543.06;5007698;28;19925;-70
2020/12/09 07:40:28;;;;;;;;;;;;;;;4.25;88.25;99551.97;5008191;28;19926;-70
2020/12/09 07:42:58;;;;;;;;;;;;;;;4.27;88.30;99536.44;5011604;28;20380;-70
2020/12/09 07:45:24;;;;;;;;;;;;;;;4.26;89.23;99533.94;4993579;28;20384;-70
2020/12/09 07:47:57;;;;;;;;;;;;;;;4.30;88.57;99535.22;4992225;28;20314;-70
2020/12/09 07:50:23;;;;;;;;;;;;;;;4.27;88.40;99539.13;5014089;28;19929;-70
2020/12/09 07:52:50;;;;;;;;;;;;;;;4.26;88.18;99544.72;5011063;28;20005;-70
2020/12/09 07:55:17;;;;;;;;;;;;;;;4.28;88.26;99548.91;5014249;28;19930;-70
2020/12/09 07:57:44;;;;;;;;;;;;;;;4.28;87.93;99542.66;5010489;28;19926;-70
2020/12/09 08:00:11;;;;;;;;;;;;;;;4.27;88.37;99543.69;5010794;28;20025;-70
2020/12/09 08:02:40;;;;;;;;;;;;;;;4.26;88.31;99548.25;4996333;28;19933;-70
2020/12/09 08:05:14;;;;;;;;;;;;;;;4.27;87.86;99554.47;5013720;28;19934;-70
2020/12/09 08:07:50;;;;;;;;;;;;;;;4.32;87.69;99546.66;5010701;28;19952;-70
2020/12/09 08:10:45;;;;;;;;;;;;;;;4.32;88.07;99543.97;4981949;28;19925;-70
2020/12/09 08:13:20;;;;;;;;;;;;;;;4.35;88.02;99548.97;4995570;28;20015;-70
2020/12/09 08:15:57;;;;;;;;;;;;;;;4.40;88.48;99545.69;4978878;28;19932;-70
2020/12/09 08:18:23;;;;;;;;;;;;;;;4.41;88.16;99550.06;4994471;28;20392;-70
2020/12/09 08:20:50;;;;;;;;;;;;;;;4.38;87.90;99554.81;4994167;28;19930;-70
2020/12/09 08:23:17;;;;;;;;;;;;;;;4.41;87.68;99559.00;5010561;28;19925;-70
2020/12/09 08:25:50;;;;;;;;;;;;;;;4.39;86.96;99558.34;4994076;28;19987;-70
2020/12/09 08:28:23;;;;;;;;;;;;;;;4.42;87.19;99555.28;5013053;28;19968;-70
2020/12/09 08:30:50;;;;;;;;;;;;;;;4.45;87.64;99568.38;5010862;28;19930;-70
2020/12/09 08:33:18;;;;;;;;;;;;;;;4.47;87.62;99570.88;5010321;28;20013;-70
2020/12/09 08:35:48;;;;;;;;;;;;;;;4.48;87.11;99569.84;5010658;28;19926;-70
2020/12/09 08:38:41;;;;;;;;;;;;;;;4.49;86.21;99580.47;5010101;28;19940;-70
2020/12/09 08:41:25;;;;;;;;;;;;;;;4.64;86.06;99581.22;4995647;28;19932;-70
2020/12/09 08:43:55;;;;;;;;;;;;;;;4.65;86.28;99577.47;4997128;28;19926;-70
2020/12/09 08:46:23;;;;;;;;;;;;;;;4.62;86.07;99577.88;5009421;28;19926;-70
2020/12/09 08:48:49;;;;;;;;;;;;;;;4.69;85.75;99580.63;5009778;28;19926;-71
2020/12/09 08:51:16;;;;;;;;;;;;;;;4.67;85.67;99580.81;4993565;28;20334;-70
2020/12/09 08:53:42;;;;;;;;;;;;;;;4.66;86.38;99579.16;4994923;28;19925;-70
2020/12/09 08:56:08;;;;;;;;;;;;;;;4.61;86.40;99580.75;5009295;28;19925;-70
2020/12/09 08:58:34;;;;;;;;;;;;;;;4.62;86.38;99588.66;5009522;28;20458;-70
2020/12/09 09:01:01;;;;;;;;;;;;;;;4.68;86.01;99579.78;5009788;28;19957;-70
2020/12/09 09:03:27;;;;;;;;;;;;;;;4.66;86.41;99584.56;5011544;28;19929;-70
2020/12/09 09:05:55;;;;;;;;;;;;;;;4.67;86.51;99590.78;5009926;28;20188;-69
2020/12/09 09:08:21;;;;;;;;;;;;;;;4.72;86.95;99586.47;5012181;28;20017;-70
2020/12/09 09:10:48;;;;;;;;;;;;;;;4.79;86.46;99588.41;4993149;28;20300;-69
2020/12/09 09:13:14;;;;;;;;;;;;;;;4.78;85.90;99586.75;4995553;28;19925;-70
2020/12/09 09:15:41;;;;;;;;;;;;;;;4.80;85.95;99595.47;4994844;28;20423;-70
2020/12/09 09:18:07;;;;;;;;;;;;;;;4.79;85.69;99594.66;4993024;28;19969;-70
2020/12/09 09:20:33;;;;;;;;;;;;;;;4.81;85.99;99599.84;5014726;28;20307;-70
2020/12/09 09:23:00;;;;;;;;;;;;;;;4.81;86.16;99603.38;5014161;28;19979;-70
2020/12/09 09:25:26;;;;;;;;;;;;;;;4.87;86.13;99607.97;4997455;28;20016;-70
2020/12/09 09:27:52;;;;;;;;;;;;;;;4.89;86.02;99605.91;5062651;22;19924;-71
2020/12/09 09:30:20;;;;;;;;;;;;;;;4.95;86.25;99599.75;5030719;28;19936;-71
2020/12/09 09:32:47;;;;;;;;;;;;;;;5.02;85.17;99605.22;5051035;28;20444;-71
2020/12/09 09:35:15;;;;;;;;;;;;;;;5.06;84.38;99609.19;5030673;28;19932;-70
2020/12/09 09:37:42;;;;;;;;;;;;;;;5.34;84.50;99604.63;5042778;28;19924;-71
2020/12/09 09:40:08;;;;;;;;;;;;;;;5.42;84.07;99602.81;5055968;28;19924;-71
2020/12/09 09:42:35;;;;;;;;;;;;;;;5.45;83.82;99605.94;5022256;28;19979;-71
2020/12/09 09:45:03;;;;;;;;;;;;;;;5.46;82.95;99609.50;5032947;28;19925;-71
2020/12/09 09:47:29;;;;;;;;;;;;;;;5.53;83.24;99607.66;5030315;28;19928;-71
2020/12/09 09:49:55;;;;;;;;;;;;;;;5.58;82.76;99616.00;5012346;28;19932;-71
2020/12/09 09:52:21;;;;;;;;;;;;;;;5.72;82.57;99617.75;5050606;28;20051;-71
2020/12/09 09:54:48;;;;;;;;;;;;;;;5.67;82.32;99614.81;5050777;28;19975;-71
2020/12/09 09:57:14;;;;;;;;;;;;;;;5.60;82.45;99624.72;5030531;28;19929;-71
2020/12/09 09:59:41;;;;;;;;;;;;;;;5.49;82.88;99623.44;5024953;28;19951;-71
2020/12/09 10:02:08;;;;;;;;;;;;;;;5.48;83.09;99621.78;5033373;28;19929;-71
2020/12/09 10:04:34;;;;;;;;;;;;;;;5.49;83.07;99620.75;5050630;28;19971;-71
2020/12/09 10:07:01;;;;;;;;;;;;;;;5.45;83.14;99621.31;5030389;28;19975;-71
2020/12/09 10:09:27;;;;;;;;;;;;;;;5.32;83.16;99620.19;5036450;28;19936;-71
2020/12/09 10:11:53;;;;;;;;;;;;;;;5.32;83.44;99619.34;5050873;28;20023;-72
2020/12/09 10:14:19;;;;;;;;;;;;;;;5.19;83.69;99620.13;5049976;28;19956;-72
2020/12/09 10:16:46;;;;;;;;;;;;;;;5.18;84.31;99626.53;5030304;28;20342;-70
2020/12/09 10:19:13;;;;;;;;;;;;;;;5.15;83.90;99626.94;5014188;28;19955;-71
2020/12/09 10:21:39;;;;;;;;;;;;;;;5.17;83.35;99629.44;5013910;28;19968;-71
2020/12/09 10:24:06;;;;;;;;;;;;;;;5.12;84.33;99627.31;5044816;28;19925;-71
2020/12/09 10:26:33;;;;;;;;;;;;;;;5.13;84.21;99634.41;5034061;28;19974;-71
2020/12/09 10:29:01;;;;;;;;;;;;;;;5.24;84.27;99625.75;5029829;28;19972;-71
2020/12/09 10:31:34;;;;;;;;;;;;;;;5.22;84.32;99625.09;5013222;28;20360;-71
2020/12/09 10:34:00;;;;;;;;;;;;;;;5.11;84.39;99625.66;5043055;28;19983;-71
2020/12/09 10:36:27;;;;;;;;;;;;;;;5.06;83.94;99625.41;5030525;28;19960;-71
2020/12/09 10:38:53;;;;;;;;;;;;;;;5.09;84.79;99632.28;5007400;28;20011;-70
2020/12/09 10:41:19;;;;;;;;;;;;;;;5.00;84.46;99618.91;5049585;28;20023;-71
2020/12/09 10:43:46;;;;;;;;;;;;;;;5.05;84.85;99623.72;5033016;28;20402;-71
2020/12/09 10:46:12;;;;;;;;;;;;;;;5.16;84.78;99608.88;5030701;28;19925;-71
2020/12/09 10:48:38;;;;;;;;;;;;;;;5.16;85.21;99607.00;5049735;28;19953;-71
2020/12/09 10:51:05;;;;;;;;;;;;;;;5.23;85.23;99607.84;5030593;28;20324;-71
2020/12/09 10:53:31;;;;;;;;;;;;;;;5.33;85.09;99610.22;5024045;28;20001;-71
2020/12/09 10:55:59;;;;;;;;;;;;;;;5.35;84.64;99603.59;5035063;28;19931;-71
2020/12/09 10:58:26;;;;;;;;;;;;;;;5.32;84.36;99598.59;5039191;28;19932;-71
2020/12/09 11:00:53;;;;;;;;;;;;;;;5.37;85.05;99598.00;5037569;28;19933;-71
2020/12/09 11:03:19;;;;;;;;;;;;;;;5.38;84.79;99595.09;5029881;28;19928;-71
2020/12/09 11:05:45;;;;;;;;;;;;;;;5.42;84.42;99600.09;5049748;28;20382;-71
2020/12/09 11:08:12;;;;;;;;;;;;;;;5.45;83.81;99591.59;5016602;28;19925;-71
2020/12/09 11:10:39;;;;;;;;;;;;;;;5.50;83.95;99592.69;5031538;28;20461;-71
2020/12/09 11:13:06;;;;;;;;;;;;;;;5.42;83.58;99592.84;5050058;28;19925;-71
2020/12/09 11:15:33;;;;;;;;;;;;;;;5.44;83.91;99593.47;5013383;28;19996;-71
2020/12/09 11:18:00;;;;;;;;;;;;;;;5.48;83.47;99593.91;5029850;28;20402;-72
2020/12/09 11:20:27;;;;;;;;;;;;;;;5.53;83.29;99602.25;5022512;28;19968;-72
2020/12/09 11:22:53;;;;;;;;;;;;;;;5.59;84.15;99596.03;5038588;28;19954;-72
2020/12/09 11:25:22;;;;;;;;;;;;;;;5.61;83.68;99596.69;5067501;28;19940;-72
2020/12/09 11:27:48;;;;;;;;;;;;;;;5.56;84.80;99593.72;5050998;28;20386;-72
2020/12/09 11:30:14;;;;;;;;;;;;;;;5.53;84.37;99603.09;5022684;28;20430;-72
2020/12/09 11:32:40;;;;;;;;;;;;;;;5.49;83.81;99595.59;5018816;28;19975;-72
2020/12/09 11:35:07;;;;;;;;;;;;;;;5.52;83.80;99600.59;5002970;28;19932;-71
2020/12/09 11:37:33;;;;;;;;;;;;;;;5.58;83.72;99600.59;5055548;28;19925;-72
2020/12/09 11:39:59;;;;;;;;;;;;;;;5.64;83.80;99593.56;5033405;28;19944;-72
2020/12/09 11:42:25;;;;;;;;;;;;;;;5.73;84.54;99589.69;5044807;28;19924;-72
2020/12/09 11:44:52;;;;;;;;;;;;;;;5.80;84.96;99587.84;5017216;28;19925;-72
2020/12/09 11:47:18;;;;;;;;;;;;;;;5.75;84.51;99592.19;5042873;28;19925;-72
2020/12/09 11:49:44;;;;;;;;;;;;;;;5.75;84.67;99593.03;5034644;28;19956;-71
2020/12/09 11:52:11;;;;;;;;;;;;;;;5.81;84.54;99589.53;5016666;28;19925;-72
2020/12/09 11:54:37;;;;;;;;;;;;;;;5.77;86.12;99588.25;5016897;28;19935;-71
2020/12/09 11:57:03;;;;;;;;;;;;;;;5.86;86.07;99591.63;5038695;28;19955;-72
2020/12/09 11:59:30;;;;;;;;;;;;;;;6.03;85.70;99585.69;5016637;28;20440;-72
2020/12/09 12:01:56;;;;;;;;;;;;;;;5.99;84.46;99591.69;5034283;28;20047;-71
2020/12/09 12:04:22;;;;;;;;;;;;;;;6.02;85.19;99586.72;5032951;28;20283;-72
2020/12/09 12:06:49;;;;;;;;;;;;;;;6.20;85.62;99590.75;5025319;28;19960;-71
2020/12/09 12:09:15;;;;;;;;;;;;;;;6.18;84.93;99590.13;5034937;28;19928;-71
2020/12/09 12:11:41;;;;;;;;;;;;;;;6.15;85.03;99585.13;5032485;28;19925;-71
2020/12/09 12:14:07;;;;;;;;;;;;;;;6.07;85.26;99591.53;5049375;28;19936;-72
2020/12/09 12:16:34;;;;;;;;;;;;;;;5.97;85.72;99589.19;5052561;28;19970;-71
2020/12/09 12:19:00;;;;;;;;;;;;;;;5.99;86.22;99587.13;5041516;28;19932;-72
2020/12/09 12:21:27;;;;;;;;;;;;;;;5.87;85.81;99582.47;5041281;28;20403;-71
2020/12/09 12:23:53;;;;;;;;;;;;;;;5.88;86.51;99592.25;5025630;28;20411;-71
2020/12/09 12:26:20;;;;;;;;;;;;;;;5.95;86.45;99585.03;5034766;28;20417;-71
2020/12/09 12:28:46;;;;;;;;;;;;;;;6.01;87.45;99585.06;5052029;28;20019;-72
2020/12/09 12:31:13;;;;;;;;;;;;;;;6.03;87.08;99592.97;5051926;28;19928;-72
2020/12/09 12:33:39;;;;;;;;;;;;;;;6.03;87.14;99585.69;5032141;28;19935;-72
2020/12/09 12:36:06;;;;;;;;;;;;;;;6.07;86.82;99596.09;5047255;28;20024;-71
2020/12/09 12:38:33;;;;;;;;;;;;;;;6.07;85.79;99593.41;5052100;28;19952;-71
2020/12/09 12:41:01;;;;;;;;;;;;;;;6.05;86.93;99596.31;5052112;28;19924;-71
2020/12/09 12:43:27;;;;;;;;;;;;;;;6.02;86.00;99594.00;5019131;28;19974;-70
2020/12/09 12:45:53;;;;;;;;;;;;;;;6.02;86.86;99586.72;5035587;28;19925;-70
2020/12/09 12:48:19;;;;;;;;;;;;;;;6.08;86.96;99592.38;5031378;28;19929;-70
2020/12/09 12:50:46;;;;;;;;;;;;;;;6.10;86.28;99585.72;5006301;28;19929;-71
2020/12/09 12:53:12;;;;;;;;;;;;;;;6.11;86.44;99589.25;5014580;28;20387;-71
2020/12/09 12:55:38;;;;;;;;;;;;;;;6.12;87.38;99586.34;5051757;28;20601;-71
2020/12/09 12:58:04;;;;;;;;;;;;;;;6.13;86.52;99596.13;5031983;28;19925;-71
2020/12/09 13:00:31;;;;;;;;;;;;;;;6.09;86.99;99592.16;5051439;28;19947;-70